.
WxDataArchive / Data Records for 2014-05-06
2014-05-05 May 2014 2014-05-07

Data Records for Tuesday, 06 May 2014

Time	Temp	Chill	HIndex	Humid	Dewpt	 Wind 	HiWind	WindDir	Rain 	Barom
-----	----	-----	------	-----	-----	------	------	-------	-----	-----
00:00	45.2	45.2	45.2	63	33.4	0	1	90	0.00	29.957 
00:05	45.2	45.2	45.2	64	33.8	0	1	90	0.00	29.957 
00:10	45.1	45.1	45.1	64	33.7	0	2	90	0.00	29.957 
00:15	45.1	45.1	45.1	64	33.7	0	1	90	0.00	29.956 
00:20	44.9	44.9	44.9	64	33.5	0	1	90	0.00	29.956 
00:25	44.9	44.9	44.9	63	33.1	0	2	90	0.00	29.956 
00:30	44.9	44.9	44.9	63	33.1	0	2	90	0.00	29.949 
00:35	44.9	44.9	44.9	64	33.5	0	2	90	0.00	29.949 
00:40	44.9	44.9	44.9	64	33.5	0	1	90	0.00	29.949 
00:45	44.8	44.8	44.8	64	33.4	0	2	90	0.00	29.958 
00:50	44.8	44.8	44.8	64	33.4	0	3	90	0.00	29.958 
00:55	44.8	44.8	44.8	64	33.4	0	1	90	0.00	29.958 
01:00	44.6	44.6	44.6	65	33.6	0	1	90	0.00	29.961 
01:05	44.5	44.5	44.5	65	33.5	0	1	90	0.00	29.961 
01:10	44.5	44.5	44.5	66	33.9	0	1	90	0.00	29.961 
01:15	44.3	44.3	44.3	66	33.7	0	4	112	0.00	29.961 
01:20	44.3	44.3	44.3	67	34.0	0	0	---	0.00	29.961 
01:25	44.2	44.2	44.2	67	33.9	0	1	112	0.00	29.961 
01:30	44.1	44.1	44.1	68	34.2	0	1	112	0.00	29.973 
01:35	44.1	44.1	44.1	68	34.2	0	0	---	0.00	29.973 
01:40	43.8	43.8	43.8	68	33.9	0	0	---	0.00	29.973 
01:45	43.5	43.5	43.5	69	34.0	0	0	---	0.00	29.969 
01:50	43.2	43.2	43.2	70	34.1	0	0	---	0.00	29.969 
01:55	43.1	43.1	43.1	71	34.3	0	0	---	0.00	29.969 
02:00	42.8	42.8	42.8	71	34.1	0	0	---	0.00	29.962 
02:05	42.6	42.6	42.6	72	34.2	0	1	112	0.00	29.962 
02:10	42.5	42.5	42.5	73	34.5	0	0	---	0.00	29.962 
02:15	42.3	42.3	42.3	73	34.3	0	0	---	0.00	29.965 
02:20	42.2	42.2	42.2	73	34.2	0	0	---	0.00	29.965 
02:25	42.1	42.1	42.1	74	34.4	0	0	---	0.00	29.965 
02:30	41.9	41.9	41.9	74	34.2	0	0	---	0.00	29.964 
02:35	41.8	41.8	41.8	75	34.5	0	0	---	0.00	29.964 
02:40	41.6	41.6	41.6	75	34.3	0	0	---	0.00	29.964 
02:45	41.6	41.6	41.6	76	34.6	0	0	---	0.00	29.962 
02:50	41.6	41.6	41.6	76	34.6	0	1	112	0.00	29.962 
02:55	41.6	41.6	41.6	76	34.6	0	0	---	0.00	29.962 
03:00	41.6	41.6	41.6	75	34.3	0	2	112	0.00	29.963 
03:05	41.6	41.6	41.6	75	34.3	0	1	112	0.00	29.963 
03:10	41.6	41.6	41.6	75	34.3	0	0	---	0.00	29.963 
03:15	41.5	41.5	41.5	75	34.2	0	0	---	0.00	29.961 
03:20	41.3	41.3	41.3	76	34.3	0	0	---	0.00	29.961 
03:25	41.3	41.3	41.3	76	34.3	0	0	---	0.00	29.961 
03:30	41.2	41.2	41.2	76	34.2	0	0	---	0.00	29.959 
03:35	41.3	41.3	41.3	76	34.3	0	1	112	0.00	29.959 
03:40	41.5	41.5	41.5	76	34.5	0	1	112	0.00	29.959 
03:45	41.5	41.5	41.5	76	34.5	0	0	---	0.00	29.959 
03:50	41.5	41.5	41.5	75	34.2	0	1	112	0.00	29.959 
03:55	41.3	41.3	41.3	75	34.0	0	0	---	0.00	29.959 
04:00	41.3	41.3	41.3	75	34.0	0	1	112	0.00	29.961 
04:05	41.2	41.2	41.2	75	33.9	0	0	---	0.00	29.961 
04:10	41.1	41.1	41.1	75	33.8	0	0	---	0.00	29.961 
04:15	40.9	40.9	40.9	75	33.6	0	0	---	0.00	29.969 
04:20	40.8	40.8	40.8	75	33.5	0	0	---	0.00	29.969 
04:25	40.6	40.6	40.6	76	33.6	0	0	---	0.00	29.969 
04:30	40.6	40.6	40.6	76	33.6	0	2	112	0.00	29.970 
04:35	40.8	40.8	40.8	76	33.8	0	2	112	0.00	29.970 
04:40	40.9	40.9	40.9	75	33.6	1	3	112	0.00	29.970 
04:45	41.2	41.2	41.2	75	33.9	1	4	112	0.00	29.964 
04:50	41.3	41.3	41.3	75	34.0	1	3	112	0.00	29.964 
04:55	41.3	41.3	41.3	75	34.0	1	3	112	0.00	29.964 
05:00	41.3	41.3	41.3	75	34.0	0	3	112	0.00	29.972 
05:05	41.2	41.2	41.2	76	34.2	1	3	112	0.00	29.972 
05:10	41.2	41.2	41.2	76	34.2	1	4	112	0.00	29.972 
05:15	41.2	41.2	41.2	76	34.2	1	4	112	0.00	29.975 
05:20	41.2	41.2	41.2	77	34.5	0	3	112	0.00	29.975 
05:25	41.1	41.1	41.1	77	34.4	0	2	112	0.00	29.975 
05:30	41.1	41.1	41.1	77	34.4	0	3	112	0.00	29.975 
05:35	41.1	41.1	41.1	77	34.4	1	3	112	0.00	29.975 
05:40	41.1	41.1	41.1	77	34.4	1	3	112	0.00	29.975 
05:45	40.9	40.9	40.9	77	34.3	1	3	112	0.00	29.978 
05:50	40.6	40.6	40.6	77	34.0	0	3	112	0.00	29.978 
05:55	40.5	40.5	40.5	77	33.9	0	2	112	0.00	29.978 
06:00	40.3	40.3	40.3	77	33.7	0	1	112	0.00	29.993 
06:05	40.2	40.2	40.2	78	33.9	0	1	112	0.00	29.993 
06:10	39.9	39.9	39.9	79	33.9	0	1	112	0.00	29.993 
06:15	39.9	39.9	39.9	79	33.9	0	2	112	0.00	29.991 
06:20	39.8	39.8	39.8	79	33.8	0	2	112	0.00	29.991 
06:25	39.6	39.6	39.6	80	33.9	0	2	112	0.00	29.991 
06:30	39.6	39.6	39.6	80	33.9	0	2	112	0.00	29.990 
06:35	39.6	39.6	39.6	81	34.3	0	4	112	0.00	29.990 
06:40	39.6	39.6	39.6	81	34.3	0	2	112	0.00	29.990 
06:45	39.6	39.6	39.6	81	34.3	0	3	112	0.00	29.993 
06:50	39.8	39.8	39.8	81	34.5	1	2	112	0.00	29.993 
06:55	39.8	39.8	39.8	81	34.5	0	1	112	0.00	29.993 
07:00	39.8	39.8	39.8	81	34.5	0	1	112	0.00	30.005 
07:05	39.8	39.8	39.8	81	34.5	0	1	112	0.00	30.005 
07:10	39.8	39.8	39.8	81	34.5	0	1	112	0.00	30.005 
07:15	39.9	39.9	39.9	81	34.6	1	2	112	0.00	30.007 
07:20	40.2	40.2	40.2	81	34.8	0	3	112	0.00	30.007 
07:25	40.5	40.5	40.5	81	35.1	1	3	112	0.00	30.007 
07:30	40.6	40.6	40.6	81	35.2	1	3	112	0.00	30.011 
07:35	40.9	40.9	40.9	81	35.5	1	3	112	0.00	30.011 
07:40	41.2	41.2	41.2	80	35.5	1	3	112	0.00	30.011 
07:45	41.8	41.8	41.8	79	35.8	1	3	112	0.00	30.019 
07:50	42.3	42.3	42.3	79	36.3	1	3	112	0.00	30.019 
07:55	42.6	42.6	42.6	77	35.9	2	4	112	0.00	30.019 
08:00	42.9	42.9	42.9	77	36.2	1	3	112	0.00	30.024 
08:05	43.3	43.3	43.3	77	36.6	1	3	112	0.00	30.024 
08:10	43.9	43.9	43.9	76	36.8	1	4	112	0.00	30.024 
08:15	44.3	44.3	44.3	76	37.2	1	4	112	0.00	30.032 
08:20	44.6	44.6	44.6	76	37.5	2	5	90	0.00	30.032 
08:25	45.2	45.2	45.2	76	38.1	1	4	90	0.00	30.032 
08:30	45.7	45.7	45.7	75	38.2	2	5	90	0.00	30.031 
08:35	46.1	46.1	46.1	74	38.3	2	6	90	0.00	30.031 
08:40	46.7	46.7	46.7	74	38.9	2	5	90	0.00	30.031 
08:45	47.3	47.3	47.3	73	39.1	3	6	90	0.00	30.034 
08:50	47.7	47.7	47.7	73	39.5	3	6	90	0.00	30.034 
08:55	48.3	48.3	48.3	70	39.0	3	5	90	0.00	30.034 
09:00	48.8	48.8	48.8	69	39.1	3	10	90	0.00	30.029 
09:05	48.8	46.8	48.8	69	39.1	5	9	90	0.00	30.029 
09:10	48.9	47.6	48.9	68	38.8	4	12	90	0.00	30.029 
09:15	49.4	49.4	49.4	67	38.9	3	10	112	0.00	30.035 
09:20	49.9	48.8	49.9	66	39.0	4	9	90	0.00	30.035 
09:25	50.4	50.4	50.4	66	39.5	3	6	90	0.00	30.035 
09:30	51.1	51.1	51.1	65	39.7	2	6	90	0.00	30.031 
09:35	51.6	51.6	51.6	64	39.8	4	10	90	0.00	30.031 
09:40	51.9	51.9	51.9	63	39.7	3	5	112	0.00	30.031 
09:45	52.2	52.2	52.2	62	39.6	3	8	90	0.00	30.035 
09:50	52.8	52.8	52.8	61	39.7	3	6	90	0.00	30.035 
09:55	53.1	53.1	53.1	58	38.7	5	10	112	0.00	30.035 
10:00	53.5	53.5	53.5	56	38.2	5	11	112	0.00	30.032 
10:05	53.6	53.6	53.6	58	39.2	4	10	90	0.00	30.032 
10:10	54.1	54.1	54.1	56	38.8	4	7	90	0.00	30.032 
10:15	54.5	54.5	54.5	55	38.7	5	10	112	0.00	30.034 
10:20	54.7	54.7	54.7	54	38.4	5	10	112	0.00	30.034 
10:25	55.1	55.1	55.1	53	38.3	5	12	112	0.00	30.034 
10:30	55.3	55.3	55.3	53	38.5	5	13	112	0.00	30.031 
10:35	55.7	55.7	55.7	52	38.3	5	13	112	0.00	30.031 
10:40	55.7	55.7	55.7	53	38.8	6	15	90	0.00	30.031 
10:45	56.2	56.2	56.2	53	39.3	5	11	112	0.00	30.028 
10:50	56.6	56.6	56.6	53	39.7	4	10	112	0.00	30.028 
10:55	57.0	57.0	57.0	54	40.5	5	13	112	0.00	30.028 
11:00	57.5	57.5	57.5	51	39.5	5	10	112	0.00	30.024 
11:05	58.0	58.0	58.0	49	38.9	4	8	112	0.00	30.024 
11:10	58.3	58.3	58.3	50	39.7	4	9	112	0.00	30.024 
11:15	58.3	58.3	58.3	50	39.7	5	13	90	0.00	30.024 
11:20	58.4	58.4	58.4	48	38.8	5	11	90	0.00	30.024 
11:25	58.3	58.3	58.3	49	39.2	5	13	90	0.00	30.024 
11:30	58.1	58.1	58.1	49	39.0	5	13	90	0.00	30.024 
11:35	58.0	58.0	58.0	49	38.9	5	12	90	0.00	30.024 
11:40	58.3	58.3	58.3	48	38.7	5	12	90	0.00	30.024 
11:45	58.4	58.4	58.4	46	37.7	6	13	112	0.00	30.023 
11:50	58.9	58.9	58.9	52	41.3	3	9	90	0.00	30.023 
11:55	60.1	60.1	60.1	48	40.3	2	7	90	0.00	30.023 
12:00	60.4	60.4	60.4	50	41.7	4	11	112	0.00	30.019 
12:05	60.4	60.4	60.4	48	40.6	4	11	112	0.00	30.019 
12:10	60.4	60.4	60.4	44	38.4	4	11	90	0.00	30.019 
12:15	60.5	60.5	60.5	46	39.6	4	10	90	0.00	30.018 
12:20	60.4	60.4	60.4	47	40.1	4	9	112	0.00	30.018 
12:25	60.7	60.7	60.7	48	40.9	4	12	68	0.00	30.018 
12:30	61.0	61.0	61.0	46	40.1	5	13	90	0.00	30.012 
12:35	61.0	61.0	61.0	47	40.6	4	9	90	0.00	30.012 
12:40	61.2	61.2	61.2	43	38.5	5	13	90	0.00	30.012 
12:45	61.2	61.2	61.2	44	39.1	5	10	90	0.00	30.008 
12:50	61.3	61.3	61.3	41	37.4	5	11	90	0.00	30.008 
12:55	61.6	61.6	61.6	42	38.3	4	9	112	0.00	30.008 
13:00	61.8	61.8	61.8	42	38.5	5	11	90	0.00	30.004 
13:05	62.3	62.3	62.3	43	39.5	4	9	90	0.00	30.004 
13:10	62.7	62.7	62.7	41	38.7	4	10	112	0.00	30.004 
13:15	63.1	63.1	63.1	41	39.0	4	12	112	0.00	30.001 
13:20	63.1	63.1	63.1	40	38.4	4	10	90	0.00	30.001 
13:25	63.2	63.2	63.2	39	37.8	4	10	90	0.00	30.001 
13:30	63.4	63.4	63.4	39	38.0	3	10	90	0.00	30.001 
13:35	63.2	63.2	63.2	36	35.8	5	11	90	0.00	30.001 
13:40	63.9	63.9	63.9	38	37.8	4	11	90	0.00	30.001 
13:45	63.9	63.9	63.9	37	37.1	4	11	112	0.00	30.000 
13:50	63.9	63.9	63.9	37	37.1	5	14	90	0.00	30.000 
13:55	63.7	63.7	63.7	39	38.3	5	11	90	0.00	30.000 
14:00	63.9	63.9	63.9	38	37.8	5	12	112	0.00	29.987 
14:05	63.9	63.9	63.9	39	38.5	6	11	90	0.00	29.987 
14:10	64.0	64.0	64.0	40	39.2	4	12	112	0.00	29.987 
14:15	64.5	64.5	64.5	36	36.9	4	10	90	0.00	29.986 
14:20	64.7	64.7	64.7	38	38.5	5	10	112	0.00	29.986 
14:25	64.5	64.5	64.5	41	40.3	5	12	90	0.00	29.986 
14:30	64.8	64.8	64.8	37	37.9	4	10	90	0.00	29.986 
14:35	65.0	65.0	65.0	37	38.1	4	10	90	0.00	29.986 
14:40	65.3	65.3	65.3	38	39.0	3	9	112	0.00	29.986 
14:45	65.6	65.6	65.6	37	38.6	3	10	90	0.00	29.983 
14:50	65.8	65.8	65.8	37	38.8	4	12	90	0.00	29.983 
14:55	65.2	65.2	65.2	37	38.3	5	10	90	0.00	29.983 
15:00	65.6	65.6	65.6	37	38.6	4	11	90	0.00	29.981 
15:05	65.6	65.6	65.6	37	38.6	5	15	112	0.00	29.981 
15:10	65.8	65.8	65.8	35	37.4	5	11	90	0.00	29.981 
15:15	65.6	65.6	65.6	37	38.6	4	9	90	0.00	29.973 
15:20	66.0	66.0	66.0	38	39.7	4	10	112	0.00	29.973 
15:25	66.3	66.3	66.3	37	39.2	4	12	112	0.00	29.973 
15:30	66.1	66.1	66.1	37	39.1	6	16	112	0.00	29.971 
15:35	66.0	66.0	66.0	38	39.7	5	12	112	0.00	29.971 
15:40	65.8	65.8	65.8	37	38.8	5	12	90	0.00	29.971 
15:45	65.8	65.8	65.8	37	38.8	5	12	90	0.00	29.970 
15:50	65.8	65.8	65.8	37	38.8	6	14	112	0.00	29.970 
15:55	66.3	66.3	66.3	37	39.2	3	6	90	0.00	29.970 
16:00	66.6	66.6	66.6	37	39.5	3	9	112	0.00	29.968 
16:05	66.6	66.6	66.6	36	38.8	4	10	112	0.00	29.968 
16:10	66.6	66.6	66.6	36	38.8	5	11	90	0.00	29.968 
16:15	66.4	66.4	66.4	37	39.3	4	10	90	0.00	29.966 
16:20	66.3	66.3	66.3	36	38.5	5	12	112	0.00	29.966 
16:25	66.1	66.1	66.1	37	39.1	6	14	112	0.00	29.966 
16:30	66.0	66.0	66.0	37	39.0	6	11	90	0.00	29.967 
16:35	66.0	66.0	66.0	35	37.6	6	11	90	0.00	29.967 
16:40	66.0	66.0	66.0	36	38.3	5	11	112	0.00	29.967 
16:45	66.1	66.1	66.1	35	37.6	4	10	112	0.00	29.967 
16:50	66.1	66.1	66.1	34	36.9	5	11	112	0.00	29.967 
16:55	66.1	66.1	66.1	35	37.6	4	10	90	0.00	29.967 
17:00	66.0	66.0	66.0	36	38.3	4	11	90	0.00	29.968 
17:05	66.0	66.0	66.0	35	37.6	5	12	90	0.00	29.968 
17:10	65.6	65.6	65.6	36	37.9	4	12	90	0.00	29.968 
17:15	65.8	65.8	65.8	36	38.1	4	13	90	0.00	29.967 
17:20	65.8	65.8	65.8	35	37.4	4	10	90	0.00	29.967 
17:25	65.6	65.6	65.6	34	36.5	5	10	90	0.00	29.967 
17:30	65.5	65.5	65.5	36	37.8	3	8	90	0.00	29.960 
17:35	65.2	65.2	65.2	34	36.1	5	14	112	0.00	29.960 
17:40	64.8	64.8	64.8	35	36.5	6	11	90	0.00	29.960 
17:45	64.7	64.7	64.7	34	35.7	5	12	112	0.00	29.959 
17:50	64.5	64.5	64.5	36	36.9	5	10	112	0.00	29.959 
17:55	64.3	64.3	64.3	36	36.8	5	9	112	0.00	29.959 
18:00	64.2	64.2	64.2	35	36.0	6	13	90	0.00	29.958 
18:05	64.0	64.0	64.0	35	35.8	6	12	112	0.00	29.958 
18:10	64.0	64.0	64.0	36	36.5	4	10	112	0.00	29.958 
18:15	63.9	63.9	63.9	34	35.0	5	14	112	0.00	29.952 
18:20	63.7	63.7	63.7	35	35.5	4	13	90	0.00	29.952 
18:25	63.7	63.7	63.7	34	34.8	4	10	90	0.00	29.952 
18:30	63.7	63.7	63.7	35	35.5	5	11	90	0.00	29.952 
18:35	63.5	63.5	63.5	35	35.4	6	11	112	0.00	29.952 
18:40	63.2	63.2	63.2	35	35.1	5	11	112	0.00	29.952 
18:45	63.1	63.1	63.1	34	34.3	6	12	112	0.00	29.958 
18:50	62.9	62.9	62.9	34	34.1	5	9	90	0.00	29.958 
18:55	62.9	62.9	62.9	35	34.8	5	11	90	0.00	29.958 
19:00	62.6	62.6	62.6	35	34.6	6	16	112	0.00	29.958 
19:05	62.4	62.4	62.4	36	35.1	5	9	90	0.00	29.958 
19:10	62.1	62.1	62.1	35	34.1	6	10	112	0.00	29.958 
19:15	61.8	61.8	61.8	36	34.6	6	12	112	0.00	29.953 
19:20	61.5	61.5	61.5	36	34.3	5	14	112	0.00	29.953 
19:25	61.3	61.3	61.3	37	34.8	5	11	90	0.00	29.953 
19:30	61.0	61.0	61.0	37	34.5	4	10	90	0.00	29.956 
19:35	60.9	60.9	60.9	38	35.1	4	7	90	0.00	29.956 
19:40	60.7	60.7	60.7	36	33.6	5	11	90	0.00	29.956 
19:45	60.5	60.5	60.5	37	34.1	5	11	90	0.00	29.959 
19:50	60.2	60.2	60.2	38	34.5	4	7	90	0.00	29.959 
19:55	59.9	59.9	59.9	37	33.6	4	9	90	0.00	29.959 
20:00	59.6	59.6	59.6	37	33.3	5	11	90	0.00	29.970 
20:05	59.3	59.3	59.3	38	33.7	4	9	112	0.00	29.970 
20:10	58.9	58.9	58.9	37	32.7	5	11	112	0.00	29.970 
20:15	58.6	58.6	58.6	36	31.7	5	9	112	0.00	29.968 
20:20	58.3	58.3	58.3	36	31.5	5	11	90	0.00	29.968 
20:25	58.0	58.0	58.0	35	30.5	5	10	90	0.00	29.968 
20:30	57.6	57.6	57.6	36	30.8	4	11	90	0.00	29.974 
20:35	57.3	57.3	57.3	36	30.6	4	9	90	0.00	29.974 
20:40	57.0	57.0	57.0	37	31.0	3	6	112	0.00	29.974 
20:45	56.9	56.9	56.9	37	30.9	3	6	90	0.00	29.985 
20:50	56.6	56.6	56.6	37	30.6	3	7	90	0.00	29.985 
20:55	56.5	56.5	56.5	37	30.5	3	9	90	0.00	29.985 
21:00	56.2	56.2	56.2	38	30.9	4	7	90	0.00	29.986 
21:05	56.0	56.0	56.0	38	30.8	4	8	90	0.00	29.986 
21:10	55.9	55.9	55.9	39	31.3	3	7	112	0.00	29.986 
21:15	55.6	55.6	55.6	39	31.0	2	7	112	0.00	29.976 
21:20	55.4	55.4	55.4	38	30.2	5	10	90	0.00	29.976 
21:25	55.3	55.3	55.3	39	30.8	5	11	90	0.00	29.976 
21:30	55.1	55.1	55.1	38	30.0	5	11	112	0.00	29.972 
21:35	54.8	54.8	54.8	38	29.7	4	11	112	0.00	29.972 
21:40	54.7	54.7	54.7	39	30.2	4	8	90	0.00	29.972 
21:45	54.4	54.4	54.4	39	30.0	5	9	90	0.00	29.971 
21:50	54.2	54.2	54.2	39	29.8	5	11	112	0.00	29.971 
21:55	54.1	54.1	54.1	40	30.3	4	10	112	0.00	29.971 
22:00	53.9	53.9	53.9	40	30.1	3	7	90	0.00	29.979 
22:05	53.8	53.8	53.8	41	30.7	4	7	90	0.00	29.979 
22:10	53.6	53.6	53.6	42	31.1	5	9	112	0.00	29.979 
22:15	53.6	53.6	53.6	42	31.1	4	9	90	0.00	29.957 
22:20	53.5	53.5	53.5	43	31.6	4	10	90	0.00	29.957 
22:25	53.3	53.3	53.3	43	31.4	2	6	90	0.00	29.957 
22:30	53.3	53.3	53.3	44	31.9	3	9	90	0.00	29.979 
22:35	53.5	53.5	53.5	44	32.1	3	7	90	0.00	29.979 
22:40	53.5	53.5	53.5	43	31.6	3	7	90	0.00	29.979 
22:45	53.5	53.5	53.5	43	31.6	5	9	90	0.00	29.965 
22:50	53.3	53.3	53.3	44	31.9	6	12	112	0.00	29.965 
22:55	53.3	53.3	53.3	44	31.9	4	10	90	0.00	29.965 
23:00	53.2	53.2	53.2	45	32.4	5	14	90	0.00	29.969 
23:05	53.2	53.2	53.2	45	32.4	5	10	112	0.00	29.969 
23:10	53.1	53.1	53.1	45	32.3	4	9	90	0.00	29.969 
23:15	53.1	53.1	53.1	45	32.3	4	10	90	0.00	29.970 
23:20	53.1	53.1	53.1	45	32.3	4	9	90	0.00	29.970 
23:25	52.9	52.9	52.9	46	32.7	3	9	112	0.00	29.970 
23:30	52.8	52.8	52.8	46	32.6	3	7	112	0.00	29.981 
23:35	52.8	52.8	52.8	45	32.1	4	9	90	0.00	29.981 
23:40	52.6	52.6	52.6	45	31.9	3	7	112	0.00	29.981 
23:45	52.6	52.6	52.6	45	31.9	4	10	90	0.00	29.971 
23:50	52.5	52.5	52.5	45	31.8	4	7	90	0.00	29.971 
23:55	52.5	52.5	52.5	45	31.8	4	7	90	0.00	29.971 

CoCoRaHS
IN-AL-39
A2 Web Hosting
Creative Commons License
GoDaddy
search engine by freefind advanced

loaded 2018-11-12 15:23:23 • last modified 2010-11-18 10:43:29
Privacy PolicyDisclaimer
• wx.awcolley.com is powered by PmWiki v.2002016 •
• all content (unless otherwise noted) © 2018 A W Colley